Guide — WDE7328 — position and weather

sailwx.info

Track history (hours):
 
Tides and Currents Weather Stations Pressure Air Temp Water Temp Dewpoint Dewpoint Depression Visibility Wind Speed Wind Dir Waves Ship Positions

Guide

Owner: Crowley Marine Services, SEATTLE, WA. More information available from US FCC via Universal Licensing System and Coast Guard Vessel Documentation Center.

Last reported at 2015-May-28 11:33 UTC. Time now 2015-May-28 12:13 UTC.
Position N 47°15' W 122°26'.

Length 34 m; draft 5.1 m.

Type: Tug. MMSI: 366759530.

Date/timePositionNaut miles runAvg speedWind from/ knotsBaromVisibWave heightAir tempDewpointWater temp
2015-May-28 11:33N 47°15' W 122°26'0 0.0
2015-May-28 10:10N 47°15' W 122°26'0 0.0
2015-May-28 09:31N 47°15' W 122°26'0 0.0
2015-May-28 08:30N 47°15' W 122°26'0 0.0
2015-May-28 06:32N 47°15' W 122°26'0 0.0
2015-May-28 04:30N 47°15' W 122°26'0 0.0
2015-May-28 02:20N 47°15' W 122°26'0 0.0
2015-May-28 00:24N 47°15' W 122°26'0 0.0
2015-May-27 23:31N 47°15' W 122°26'0 0.0
2015-May-27 22:33N 47°15' W 122°26'4 3.5
2015-May-27 21:33N 47°19' W 122°27'8 8.2
2015-May-27 20:33N 47°27' W 122°25'310.5
2015-May-27 20:17N 47°29' W 122°26'6 8.0
2015-May-27 19:33N 47°34' W 122°32'0 0.6
2015-May-27 19:21N 47°34' W 122°32'0 0.0
2015-May-27 18:33N 47°34' W 122°32'0 0.2
2015-May-27 18:25N 47°34' W 122°32'7 8.6
2015-May-27 17:33N 47°26' W 122°31'9 9.2
2015-May-27 16:33N 47°18' W 122°27'1 0.6
2015-May-27 15:26N 47°18' W 122°26'0 0.0
2015-May-27 14:31N 47°18' W 122°26'1 1.4
2015-May-27 13:33N 47°17' W 122°25'0 0.1
2015-May-27 12:31N 47°17' W 122°25'1 1.2
2015-May-27 11:33N 47°17' W 122°26'0 0.4
2015-May-27 10:33N 47°17' W 122°25'0 0.7
2015-May-27 10:11N 47°17' W 122°25'0 0.6
2015-May-27 09:33N 47°17' W 122°25'1 0.3
2015-May-27 07:34N 47°16' W 122°24'3 7.7
2015-May-27 07:11N 47°18' W 122°27'5 8.1
2015-May-27 06:33N 47°22' W 122°23'6 7.9
2015-May-27 05:51N 47°28' W 122°25'3 8.8
2015-May-27 05:33N 47°30' W 122°26'5 5.2
2015-May-27 04:33N 47°34' W 122°32'0 0.0
2015-May-27 04:31N 47°34' W 122°32'1 1.4
2015-May-27 03:33N 47°34' W 122°30'0 4.9
2015-May-27 03:31N 47°34' W 122°30'1010.0
2015-May-27 02:33N 47°43' W 122°28'111.1
2015-May-27 02:31N 47°44' W 122°28'1111.3
2015-May-27 01:33N 47°54' W 122°30'310.9
2015-May-27 01:19N 47°56' W 122°33'1810.0
2015-May-26 23:32N 48°11' W 122°49'1010.6
2015-May-26 22:33N 48°12' W 123°04'2 4.4
2015-May-26 22:08N 48°12' W 123°07'1 2.0
2015-May-26 21:33N 48°13' W 123°07'6 6.3
2015-May-26 20:33N 48°12' W 122°58'9 8.3
2015-May-26 19:31N 48°10' W 122°45'9 8.9
2015-May-26 18:32N 48°03' W 122°38'9 9.2
2015-May-26 17:33N 47°56' W 122°29'1 8.9
2015-May-26 17:25N 47°55' W 122°29'8 9.5
2015-May-26 16:33N 47°47' W 122°26'0 9.8
2015-May-26 16:31N 47°46' W 122°26'9 9.2
2015-May-26 15:33N 47°38' W 122°25'0 9.5
2015-May-26 15:30N 47°37' W 122°24'4 3.8
2015-May-26 14:33N 47°35' W 122°21'0 0.0
2015-May-26 14:30N 47°35' W 122°21'0 0.0
2015-May-26 13:33N 47°35' W 122°21'0 0.0
2015-May-26 13:29N 47°35' W 122°21'0 0.0
2015-May-26 12:33N 47°35' W 122°21'0 0.0
2015-May-26 12:24N 47°35' W 122°21'0 0.0
2015-May-26 11:33N 47°35' W 122°21'0 0.0
2015-May-26 11:29N 47°35' W 122°21'0 0.3
2015-May-26 10:33N 47°35' W 122°21'0 0.1
2015-May-26 09:57N 47°35' W 122°21'0 0.8
2015-May-26 09:33N 47°35' W 122°21'0 0.0
2015-May-26 09:27N 47°35' W 122°21'0 0.0
2015-May-26 08:33N 47°35' W 122°21'0 0.0
2015-May-26 08:32N 47°35' W 122°21'0 0.0
2015-May-26 07:33N 47°35' W 122°21'0 0.2
2015-May-26 07:32N 47°35' W 122°21'0 0.0
2015-May-26 06:33N 47°35' W 122°21'0 0.0
2015-May-26 06:27N 47°35' W 122°21'0 0.0
2015-May-26 06:17N 47°35' W 122°21'0 0.0
2015-May-26 05:33N 47°35' W 122°21'0 0.0
2015-May-26 04:33N 47°35' W 122°21'0 0.0
2015-May-26 04:31N 47°35' W 122°21'0 0.0
2015-May-26 03:33N 47°35' W 122°21'0 0.1
2015-May-26 03:31N 47°35' W 122°21'0 0.0
2015-May-26 02:33N 47°35' W 122°21'0 0.1
2015-May-26 02:31N 47°35' W 122°21'0 0.0
2015-May-26 01:33N 47°35' W 122°21'1 5.4
2015-May-26 01:26N 47°36' W 122°21'7 8.5
2015-May-26 00:33N 47°42' W 122°26'0 9.3
2015-May-26 00:30N 47°42' W 122°26'9 9.9
2015-May-25 23:33N 47°51' W 122°23'10 9.5
2015-May-25 22:33N 47°59' W 122°13'1 1.5
2015-May-25 21:33N 47°58' W 122°16'0 1.0
2015-May-25 21:13N 47°58' W 122°16'5 8.0
2015-May-25 20:33N 47°54' W 122°21'1 9.1
2015-May-25 20:24N 47°53' W 122°22'910.2
2015-May-25 19:33N 47°45' W 122°26'1 9.7
2015-May-25 19:29N 47°44' W 122°26'8 9.0
2015-May-25 18:34N 47°36' W 122°22'065.0
2015-May-25 18:33N 47°36' W 122°22'1 0.8
2015-May-25 17:32N 47°35' W 122°21'0 0.0
2015-May-25 17:32N 47°35' W 122°21'0 0.0
2015-May-25 16:33N 47°35' W 122°21'0 0.0
2015-May-25 16:32N 47°35' W 122°21'0 0.0
2015-May-25 15:33N 47°35' W 122°21'0 0.2
2015-May-25 15:32N 47°35' W 122°21'0 0.0
2015-May-25 14:33N 47°35' W 122°21'0 0.2
2015-May-25 14:31N 47°35' W 122°21'0 0.3
2015-May-25 13:33N 47°35' W 122°21'0 0.1
2015-May-25 13:26N 47°35' W 122°21'2 2.0
2015-May-25 12:33N 47°36' W 122°23'110.7
2015-May-25 12:30N 47°36' W 122°24'1111.4
2015-May-25 11:33N 47°25' W 122°22'9 8.5
2015-May-25 10:32N 47°17' W 122°25'1 1.5
2015-May-25 09:32N 47°16' W 122°23'1 0.3
2015-May-25 07:05N 47°16' W 122°24'0 0.1
2015-May-25 01:24N 47°16' W 122°23'0 0.5
2015-May-25 00:31N 47°16' W 122°24'1 0.7
2015-May-24 23:33N 47°17' W 122°25'0 0.2
2015-May-24 22:33N 47°17' W 122°25'2 1.4
2015-May-24 21:22N 47°15' W 122°26'0 0.0
2015-May-24 20:33N 47°15' W 122°26'0 0.0
2015-May-24 19:22N 47°15' W 122°26'0 0.0
2015-May-24 18:33N 47°15' W 122°26'0 0.0
2015-May-24 17:33N 47°15' W 122°26'0 0.0
2015-May-24 16:39N 47°15' W 122°26'0 0.0
2015-May-24 16:04N 47°15' W 122°26'0 0.0
2015-May-24 15:24N 47°15' W 122°26'0 0.0
2015-May-24 14:33N 47°15' W 122°26'2 1.6
2015-May-24 13:33N 47°17' W 122°25'1 0.9
2015-May-24 12:28N 47°17' W 122°23'1 1.1
2015-May-24 11:29N 47°17' W 122°25'1 0.8
2015-May-24 10:33N 47°16' W 122°24'1 1.5
2015-May-24 09:33N 47°15' W 122°23'1 0.6
2015-May-24 08:33N 47°16' W 122°23'3 2.5
2015-May-24 07:33N 47°17' W 122°26'2 2.2
2015-May-24 06:34N 47°15' W 122°26'0 0.0
2015-May-24 05:33N 47°15' W 122°26'0 0.0
2015-May-24 04:34N 47°15' W 122°26'0 0.0
2015-May-24 03:32N 47°15' W 122°26'6 6.7
2015-May-24 02:33N 47°22' W 122°24'5 7.9
2015-May-24 01:56N 47°27' W 122°25'410.3
2015-May-24 01:33N 47°30' W 122°26'1 9.9
2015-May-24 01:26N 47°32' W 122°26'5 6.0
2015-May-24 00:34N 47°35' W 122°21'0 3.0
2015-May-24 00:31N 47°35' W 122°21'4 4.3
2015-May-23 23:33N 47°32' W 122°25'111.1
2015-May-23 23:30N 47°32' W 122°25'1011.1
2015-May-23 22:34N 47°22' W 122°23'5 4.5
2015-May-23 21:27N 47°17' W 122°23'1 0.8
2015-May-23 20:32N 47°17' W 122°24'1 1.9
2015-May-23 19:49N 47°16' W 122°26'1 4.0
2015-May-23 19:32N 47°15' W 122°26'0 0.0
2015-May-23 18:33N 47°15' W 122°26'0 0.0
2015-May-23 15:21N 47°15' W 122°26'1 1.4
2015-May-23 14:33N 47°16' W 122°27'2 9.1
2015-May-23 14:21N 47°18' W 122°27'7 9.0
2015-May-23 13:33N 47°25' W 122°23'210.1
2015-May-23 13:20N 47°27' W 122°25'810.1
2015-May-23 12:33N 47°34' W 122°26'010.0
2015-May-23 12:31N 47°35' W 122°26'4 3.8
2015-May-23 11:33N 47°36' W 122°21'0 3.1
2015-May-23 11:30N 47°36' W 122°21'1 0.8
2015-May-23 10:33N 47°35' W 122°21'0 0.0
2015-May-23 10:30N 47°35' W 122°21'0 0.0
2015-May-23 09:33N 47°35' W 122°21'0 0.0
2015-May-23 09:30N 47°35' W 122°21'0 0.2
2015-May-23 08:33N 47°35' W 122°21'0 0.6
2015-May-23 08:29N 47°35' W 122°21'0 0.2
2015-May-23 07:33N 47°35' W 122°21'0 0.0
2015-May-23 07:29N 47°35' W 122°21'0 0.0
2015-May-23 06:33N 47°35' W 122°21'0 0.0
2015-May-23 06:32N 47°35' W 122°21'0 0.0
2015-May-23 06:12N 47°35' W 122°21'0 0.0
2015-May-23 05:33N 47°35' W 122°21'0 0.0
2015-May-23 04:33N 47°35' W 122°21'0 0.2
2015-May-23 04:11N 47°35' W 122°21'1 0.8
2015-May-23 03:34N 47°35' W 122°21'0 0.1
2015-May-23 03:31N 47°35' W 122°21'0 0.2
2015-May-23 02:33N 47°35' W 122°21'0 4.5
2015-May-23 02:31N 47°35' W 122°21'0 0.4
2015-May-23 01:33N 47°35' W 122°21'0 0.0
2015-May-23 01:25N 47°35' W 122°21'0 0.2
2015-May-23 00:33N 47°35' W 122°21'0 3.7
2015-May-23 00:29N 47°35' W 122°21'5 5.2
2015-May-22 23:33N 47°32' W 122°25'110.0
2015-May-22 23:29N 47°31' W 122°25'9 9.8
2015-May-22 22:33N 47°22' W 122°22'110.3
2015-May-22 22:28N 47°21' W 122°23'6 6.9
2015-May-22 21:32N 47°15' W 122°26'0 0.0
2015-May-22 20:33N 47°15' W 122°26'0 0.0
2015-May-22 19:08N 47°15' W 122°26'0 0.0
2015-May-22 18:33N 47°15' W 122°26'0 0.0
2015-May-22 17:32N 47°15' W 122°26'0 0.0
2015-May-22 16:33N 47°15' W 122°26'0 0.0
2015-May-22 15:33N 47°15' W 122°26'0 0.0
2015-May-22 14:33N 47°15' W 122°26'0 0.0
2015-May-22 13:34N 47°15' W 122°26'0 0.0
2015-May-22 12:33N 47°15' W 122°26'0 0.0
2015-May-22 11:33N 47°15' W 122°26'0 0.0
2015-May-22 10:33N 47°15' W 122°26'2 1.8
2015-May-22 09:32N 47°16' W 122°23'2 2.8
2015-May-22 08:46N 47°17' W 122°26'1 6.6
2015-May-22 08:33N 47°18' W 122°27'6 6.5
2015-May-22 07:33N 47°24' W 122°22'610.5
2015-May-22 07:00N 47°29' W 122°24'511.3
2015-May-22 06:33N 47°34' W 122°25'110.6
2015-May-22 06:30N 47°35' W 122°25'3 4.2
2015-May-22 05:45N 47°35' W 122°21'0 0.6
2015-May-22 05:33N 47°35' W 122°21'3 3.1
2015-May-22 04:33N 47°35' W 122°25'1 9.7
2015-May-22 04:29N 47°34' W 122°25'1010.8
2015-May-22 03:33N 47°24' W 122°22'510.1
2015-May-22 03:03N 47°20' W 122°25'4 7.4
2015-May-22 02:33N 47°16' W 122°24'1 0.8
2015-May-22 01:34N 47°16' W 122°23'1 0.5
2015-May-22 00:25N 47°16' W 122°24'0 0.5
2015-May-21 23:33N 47°16' W 122°25'0 0.4
2015-May-21 22:33N 47°16' W 122°25'0 0.3
2015-May-21 21:33N 47°16' W 122°25'2 1.8
2015-May-21 20:33N 47°18' W 122°26'0 0.0
2015-May-21 19:33N 47°18' W 122°26'0 0.0
2015-May-21 18:30N 47°18' W 122°26'2 1.6
2015-May-21 17:33N 47°16' W 122°25'0 0.3
2015-May-21 16:33N 47°16' W 122°25'0 0.0
2015-May-21 15:33N 47°16' W 122°25'0 0.0
2015-May-21 14:33N 47°16' W 122°25'1 0.8
2015-May-21 13:04N 47°17' W 122°23'1 1.0
2015-May-21 12:07N 47°17' W 122°25'1 1.7
2015-May-21 11:33N 47°18' W 122°26'0 0.0
2015-May-21 10:29N 47°18' W 122°26'0 0.0
2015-May-21 09:33N 47°18' W 122°26'0 0.0
2015-May-21 08:32N 47°18' W 122°26'0 0.0
2015-May-21 07:28N 47°18' W 122°26'0 0.0
2015-May-21 06:30N 47°18' W 122°26'0 0.0
2015-May-21 05:33N 47°18' W 122°26'0 0.0
2015-May-21 04:31N 47°18' W 122°26'0 0.0
2015-May-21 03:33N 47°18' W 122°26'2 2.4
2015-May-21 02:32N 47°16' W 122°23'1 0.7
2015-May-21 01:33N 47°15' W 122°23'3 2.9
2015-May-21 00:33N 47°17' W 122°26'2 2.0
2015-May-20 23:32N 47°15' W 122°26'0 0.0
2015-May-20 22:33N 47°15' W 122°26'0 0.0
2015-May-20 21:33N 47°15' W 122°26'0 0.0
2015-May-20 20:33N 47°15' W 122°26'0 0.0
2015-May-20 19:12N 47°15' W 122°26'0 0.0
2015-May-20 18:33N 47°15' W 122°26'0 0.0
2015-May-20 17:33N 47°15' W 122°26'0 0.0
2015-May-20 16:33N 47°15' W 122°26'0 0.0
2015-May-20 15:33N 47°15' W 122°26'0 0.0
2015-May-20 14:33N 47°15' W 122°26'2 1.5
2015-May-20 13:33N 47°17' W 122°25'0 0.2
2015-May-20 12:33N 47°17' W 122°25'0 0.1
2015-May-20 11:33N 47°17' W 122°25'2 1.6
2015-May-20 10:33N 47°15' W 122°26'0 0.0
2015-May-20 09:34N 47°15' W 122°26'0 0.0
2015-May-20 08:34N 47°15' W 122°26'0 0.0
2015-May-20 07:33N 47°15' W 122°26'0 0.0
2015-May-20 06:33N 47°15' W 122°26'0 0.0
2015-May-20 05:33N 47°15' W 122°26'0 0.0
2015-May-20 04:33N 47°15' W 122°26'0 0.0
2015-May-20 03:33N 47°15' W 122°26'2 1.6
2015-May-20 02:32N 47°17' W 122°25'1 3.0
2015-May-20 02:07N 47°16' W 122°24'0 0.7
2015-May-20 01:33N 47°16' W 122°23'3 2.6
2015-May-20 00:33N 47°18' W 122°26'0 0.0
2015-May-19 23:33N 47°18' W 122°26'0 0.0
2015-May-19 22:32N 47°18' W 122°26'1 0.6
2015-May-19 21:33N 47°17' W 122°25'0 0.3
2015-May-19 20:33N 47°17' W 122°26'1 0.9
2015-May-19 19:32N 47°18' W 122°26'0 0.0
2015-May-19 18:32N 47°18' W 122°26'0 0.0
2015-May-19 17:28N 47°18' W 122°26'0 0.0
2015-May-19 16:32N 47°18' W 122°26'0 0.0
2015-May-19 15:29N 47°18' W 122°26'0 0.0
2015-May-19 14:32N 47°18' W 122°26'3 2.6
2015-May-19 13:33N 47°16' W 122°23'2 2.3
2015-May-19 12:33N 47°17' W 122°26'2 2.0
2015-May-19 11:31N 47°15' W 122°26'0 0.0
2015-May-19 10:33N 47°15' W 122°26'0 0.0
2015-May-19 10:30N 47°15' W 122°26'0 0.0
2015-May-19 09:33N 47°15' W 122°26'0 0.0
2015-May-19 08:33N 47°15' W 122°26'0 0.0
2015-May-19 07:33N 47°15' W 122°26'0 0.0
2015-May-19 06:33N 47°15' W 122°26'0 0.0
2015-May-19 05:33N 47°15' W 122°26'0 0.0
2015-May-19 04:32N 47°15' W 122°26'0 0.0
2015-May-19 03:29N 47°15' W 122°26'1 0.2
2015-May-18 23:35N 47°16' W 122°26'0 9.0
2015-May-18 23:33N 47°16' W 122°26'1 0.7
2015-May-18 22:33N 47°17' W 122°26'1 2.4
2015-May-18 22:18N 47°17' W 122°26'1 0.9
2015-May-18 21:33N 47°18' W 122°26'0 0.0
2015-May-18 20:32N 47°18' W 122°26'0 0.0
2015-May-18 19:33N 47°18' W 122°26'0 0.0
2015-May-18 18:32N 47°18' W 122°26'0 0.0
2015-May-18 17:33N 47°18' W 122°26'0 0.0
2015-May-18 16:33N 47°18' W 122°26'0 0.0
2015-May-18 15:33N 47°18' W 122°26'0 0.0
2015-May-18 14:34N 47°18' W 122°26'0 0.0
2015-May-18 13:33N 47°18' W 122°26'0 0.0
2015-May-18 12:31N 47°18' W 122°26'3 2.9
2015-May-18 11:33N 47°16' W 122°23'  
Track history (hours):
 
Tides and Currents Weather Stations Pressure Air Temp Water Temp Dewpoint Dewpoint Depression Visibility Wind Speed Wind Dir Waves Ship Positions

Guide

Owner: Crowley Marine Services, SEATTLE, WA. More information available from US FCC via Universal Licensing System and Coast Guard Vessel Documentation Center.

Last reported at 2015-May-28 11:33 UTC. Time now 2015-May-28 12:13 UTC.
Position N 47°15' W 122°26'.

Length 34 m; draft 5.1 m.

Type: Tug. MMSI: 366759530.

Date/timePositionNaut miles runAvg speedWind from/ knotsBaromVisibWave heightAir tempDewpointWater temp
2015-May-28 11:33N 47°15' W 122°26'0 0.0
2015-May-28 10:10N 47°15' W 122°26'0 0.0
2015-May-28 09:31N 47°15' W 122°26'0 0.0
2015-May-28 08:30N 47°15' W 122°26'0 0.0
2015-May-28 06:32N 47°15' W 122°26'0 0.0
2015-May-28 04:30N 47°15' W 122°26'0 0.0
2015-May-28 02:20N 47°15' W 122°26'0 0.0
2015-May-28 00:24N 47°15' W 122°26'0 0.0
2015-May-27 23:31N 47°15' W 122°26'0 0.0
2015-May-27 22:33N 47°15' W 122°26'4 3.5
2015-May-27 21:33N 47°19' W 122°27'8 8.2
2015-May-27 20:33N 47°27' W 122°25'310.5
2015-May-27 20:17N 47°29' W 122°26'6 8.0
2015-May-27 19:33N 47°34' W 122°32'0 0.6
2015-May-27 19:21N 47°34' W 122°32'0 0.0
2015-May-27 18:33N 47°34' W 122°32'0 0.2
2015-May-27 18:25N 47°34' W 122°32'7 8.6
2015-May-27 17:33N 47°26' W 122°31'9 9.2
2015-May-27 16:33N 47°18' W 122°27'1 0.6
2015-May-27 15:26N 47°18' W 122°26'0 0.0
2015-May-27 14:31N 47°18' W 122°26'1 1.4
2015-May-27 13:33N 47°17' W 122°25'0 0.1
2015-May-27 12:31N 47°17' W 122°25'1 1.2
2015-May-27 11:33N 47°17' W 122°26'0 0.4
2015-May-27 10:33N 47°17' W 122°25'0 0.7
2015-May-27 10:11N 47°17' W 122°25'0 0.6
2015-May-27 09:33N 47°17' W 122°25'1 0.3
2015-May-27 07:34N 47°16' W 122°24'3 7.7
2015-May-27 07:11N 47°18' W 122°27'5 8.1
2015-May-27 06:33N 47°22' W 122°23'6 7.9
2015-May-27 05:51N 47°28' W 122°25'3 8.8
2015-May-27 05:33N 47°30' W 122°26'5 5.2
2015-May-27 04:33N 47°34' W 122°32'0 0.0
2015-May-27 04:31N 47°34' W 122°32'1 1.4
2015-May-27 03:33N 47°34' W 122°30'0 4.9
2015-May-27 03:31N 47°34' W 122°30'1010.0
2015-May-27 02:33N 47°43' W 122°28'111.1
2015-May-27 02:31N 47°44' W 122°28'1111.3
2015-May-27 01:33N 47°54' W 122°30'310.9
2015-May-27 01:19N 47°56' W 122°33'1810.0
2015-May-26 23:32N 48°11' W 122°49'1010.6
2015-May-26 22:33N 48°12' W 123°04'2 4.4
2015-May-26 22:08N 48°12' W 123°07'1 2.0
2015-May-26 21:33N 48°13' W 123°07'6 6.3
2015-May-26 20:33N 48°12' W 122°58'9 8.3
2015-May-26 19:31N 48°10' W 122°45'9 8.9
2015-May-26 18:32N 48°03' W 122°38'9 9.2
2015-May-26 17:33N 47°56' W 122°29'1 8.9
2015-May-26 17:25N 47°55' W 122°29'8 9.5
2015-May-26 16:33N 47°47' W 122°26'0 9.8
2015-May-26 16:31N 47°46' W 122°26'9 9.2
2015-May-26 15:33N 47°38' W 122°25'0 9.5
2015-May-26 15:30N 47°37' W 122°24'4 3.8
2015-May-26 14:33N 47°35' W 122°21'0 0.0
2015-May-26 14:30N 47°35' W 122°21'0 0.0
2015-May-26 13:33N 47°35' W 122°21'0 0.0
2015-May-26 13:29N 47°35' W 122°21'0 0.0
2015-May-26 12:33N 47°35' W 122°21'0 0.0
2015-May-26 12:24N 47°35' W 122°21'0 0.0
2015-May-26 11:33N 47°35' W 122°21'0 0.0
2015-May-26 11:29N 47°35' W 122°21'0 0.3
2015-May-26 10:33N 47°35' W 122°21'0 0.1
2015-May-26 09:57N 47°35' W 122°21'0 0.8
2015-May-26 09:33N 47°35' W 122°21'0 0.0
2015-May-26 09:27N 47°35' W 122°21'0 0.0
2015-May-26 08:33N 47°35' W 122°21'0 0.0
2015-May-26 08:32N 47°35' W 122°21'0 0.0
2015-May-26 07:33N 47°35' W 122°21'0 0.2
2015-May-26 07:32N 47°35' W 122°21'0 0.0
2015-May-26 06:33N 47°35' W 122°21'0 0.0
2015-May-26 06:27N 47°35' W 122°21'0 0.0
2015-May-26 06:17N 47°35' W 122°21'0 0.0
2015-May-26 05:33N 47°35' W 122°21'0 0.0
2015-May-26 04:33N 47°35' W 122°21'0 0.0
2015-May-26 04:31N 47°35' W 122°21'0 0.0
2015-May-26 03:33N 47°35' W 122°21'0 0.1
2015-May-26 03:31N 47°35' W 122°21'0 0.0
2015-May-26 02:33N 47°35' W 122°21'0 0.1
2015-May-26 02:31N 47°35' W 122°21'0 0.0
2015-May-26 01:33N 47°35' W 122°21'1 5.4
2015-May-26 01:26N 47°36' W 122°21'7 8.5
2015-May-26 00:33N 47°42' W 122°26'0 9.3
2015-May-26 00:30N 47°42' W 122°26'9 9.9
2015-May-25 23:33N 47°51' W 122°23'10 9.5
2015-May-25 22:33N 47°59' W 122°13'1 1.5
2015-May-25 21:33N 47°58' W 122°16'0 1.0
2015-May-25 21:13N 47°58' W 122°16'5 8.0
2015-May-25 20:33N 47°54' W 122°21'1 9.1
2015-May-25 20:24N 47°53' W 122°22'910.2
2015-May-25 19:33N 47°45' W 122°26'1 9.7
2015-May-25 19:29N 47°44' W 122°26'8 9.0
2015-May-25 18:34N 47°36' W 122°22'065.0
2015-May-25 18:33N 47°36' W 122°22'1 0.8
2015-May-25 17:32N 47°35' W 122°21'0 0.0
2015-May-25 17:32N 47°35' W 122°21'0 0.0
2015-May-25 16:33N 47°35' W 122°21'0 0.0
2015-May-25 16:32N 47°35' W 122°21'0 0.0
2015-May-25 15:33N 47°35' W 122°21'0 0.2
2015-May-25 15:32N 47°35' W 122°21'0 0.0
2015-May-25 14:33N 47°35' W 122°21'0 0.2
2015-May-25 14:31N 47°35' W 122°21'0 0.3
2015-May-25 13:33N 47°35' W 122°21'0 0.1
2015-May-25 13:26N 47°35' W 122°21'2 2.0
2015-May-25 12:33N 47°36' W 122°23'110.7
2015-May-25 12:30N 47°36' W 122°24'1111.4
2015-May-25 11:33N 47°25' W 122°22'9 8.5
2015-May-25 10:32N 47°17' W 122°25'1 1.5
2015-May-25 09:32N 47°16' W 122°23'1 0.3
2015-May-25 07:05N 47°16' W 122°24'0 0.1
2015-May-25 01:24N 47°16' W 122°23'0 0.5
2015-May-25 00:31N 47°16' W 122°24'1 0.7
2015-May-24 23:33N 47°17' W 122°25'0 0.2
2015-May-24 22:33N 47°17' W 122°25'2 1.4
2015-May-24 21:22N 47°15' W 122°26'0 0.0
2015-May-24 20:33N 47°15' W 122°26'0 0.0
2015-May-24 19:22N 47°15' W 122°26'0 0.0
2015-May-24 18:33N 47°15' W 122°26'0 0.0
2015-May-24 17:33N 47°15' W 122°26'0 0.0
2015-May-24 16:39N 47°15' W 122°26'0 0.0
2015-May-24 16:04N 47°15' W 122°26'0 0.0
2015-May-24 15:24N 47°15' W 122°26'0 0.0
2015-May-24 14:33N 47°15' W 122°26'2 1.6
2015-May-24 13:33N 47°17' W 122°25'1 0.9
2015-May-24 12:28N 47°17' W 122°23'1 1.1
2015-May-24 11:29N 47°17' W 122°25'1 0.8
2015-May-24 10:33N 47°16' W 122°24'1 1.5
2015-May-24 09:33N 47°15' W 122°23'1 0.6
2015-May-24 08:33N 47°16' W 122°23'3 2.5
2015-May-24 07:33N 47°17' W 122°26'2 2.2
2015-May-24 06:34N 47°15' W 122°26'0 0.0
2015-May-24 05:33N 47°15' W 122°26'0 0.0
2015-May-24 04:34N 47°15' W 122°26'0 0.0
2015-May-24 03:32N 47°15' W 122°26'6 6.7
2015-May-24 02:33N 47°22' W 122°24'5 7.9
2015-May-24 01:56N 47°27' W 122°25'410.3
2015-May-24 01:33N 47°30' W 122°26'1 9.9
2015-May-24 01:26N 47°32' W 122°26'5 6.0
2015-May-24 00:34N 47°35' W 122°21'0 3.0
2015-May-24 00:31N 47°35' W 122°21'4 4.3
2015-May-23 23:33N 47°32' W 122°25'111.1
2015-May-23 23:30N 47°32' W 122°25'1011.1
2015-May-23 22:34N 47°22' W 122°23'5 4.5
2015-May-23 21:27N 47°17' W 122°23'1 0.8
2015-May-23 20:32N 47°17' W 122°24'1 1.9
2015-May-23 19:49N 47°16' W 122°26'1 4.0
2015-May-23 19:32N 47°15' W 122°26'0 0.0
2015-May-23 18:33N 47°15' W 122°26'0 0.0
2015-May-23 15:21N 47°15' W 122°26'1 1.4
2015-May-23 14:33N 47°16' W 122°27'2 9.1
2015-May-23 14:21N 47°18' W 122°27'7 9.0
2015-May-23 13:33N 47°25' W 122°23'210.1
2015-May-23 13:20N 47°27' W 122°25'810.1
2015-May-23 12:33N 47°34' W 122°26'010.0
2015-May-23 12:31N 47°35' W 122°26'4 3.8
2015-May-23 11:33N 47°36' W 122°21'0 3.1
2015-May-23 11:30N 47°36' W 122°21'1 0.8
2015-May-23 10:33N 47°35' W 122°21'0 0.0
2015-May-23 10:30N 47°35' W 122°21'0 0.0
2015-May-23 09:33N 47°35' W 122°21'0 0.0
2015-May-23 09:30N 47°35' W 122°21'0 0.2
2015-May-23 08:33N 47°35' W 122°21'0 0.6
2015-May-23 08:29N 47°35' W 122°21'0 0.2
2015-May-23 07:33N 47°35' W 122°21'0 0.0
2015-May-23 07:29N 47°35' W 122°21'0 0.0
2015-May-23 06:33N 47°35' W 122°21'0 0.0
2015-May-23 06:32N 47°35' W 122°21'0 0.0
2015-May-23 06:12N 47°35' W 122°21'0 0.0
2015-May-23 05:33N 47°35' W 122°21'0 0.0
2015-May-23 04:33N 47°35' W 122°21'0 0.2
2015-May-23 04:11N 47°35' W 122°21'1 0.8
2015-May-23 03:34N 47°35' W 122°21'0 0.1
2015-May-23 03:31N 47°35' W 122°21'0 0.2
2015-May-23 02:33N 47°35' W 122°21'0 4.5
2015-May-23 02:31N 47°35' W 122°21'0 0.4
2015-May-23 01:33N 47°35' W 122°21'0 0.0
2015-May-23 01:25N 47°35' W 122°21'0 0.2
2015-May-23 00:33N 47°35' W 122°21'0 3.7
2015-May-23 00:29N 47°35' W 122°21'5 5.2
2015-May-22 23:33N 47°32' W 122°25'110.0
2015-May-22 23:29N 47°31' W 122°25'9 9.8
2015-May-22 22:33N 47°22' W 122°22'110.3
2015-May-22 22:28N 47°21' W 122°23'6 6.9
2015-May-22 21:32N 47°15' W 122°26'0 0.0
2015-May-22 20:33N 47°15' W 122°26'0 0.0
2015-May-22 19:08N 47°15' W 122°26'0 0.0
2015-May-22 18:33N 47°15' W 122°26'0 0.0
2015-May-22 17:32N 47°15' W 122°26'0 0.0
2015-May-22 16:33N 47°15' W 122°26'0 0.0
2015-May-22 15:33N 47°15' W 122°26'0 0.0
2015-May-22 14:33N 47°15' W 122°26'0 0.0
2015-May-22 13:34N 47°15' W 122°26'0 0.0
2015-May-22 12:33N 47°15' W 122°26'0 0.0
2015-May-22 11:33N 47°15' W 122°26'0 0.0
2015-May-22 10:33N 47°15' W 122°26'2 1.8
2015-May-22 09:32N 47°16' W 122°23'2 2.8
2015-May-22 08:46N 47°17' W 122°26'1 6.6
2015-May-22 08:33N 47°18' W 122°27'6 6.5
2015-May-22 07:33N 47°24' W 122°22'610.5
2015-May-22 07:00N 47°29' W 122°24'511.3
2015-May-22 06:33N 47°34' W 122°25'110.6
2015-May-22 06:30N 47°35' W 122°25'3 4.2
2015-May-22 05:45N 47°35' W 122°21'0 0.6
2015-May-22 05:33N 47°35' W 122°21'3 3.1
2015-May-22 04:33N 47°35' W 122°25'1 9.7
2015-May-22 04:29N 47°34' W 122°25'1010.8
2015-May-22 03:33N 47°24' W 122°22'510.1
2015-May-22 03:03N 47°20' W 122°25'4 7.4
2015-May-22 02:33N 47°16' W 122°24'1 0.8
2015-May-22 01:34N 47°16' W 122°23'1 0.5
2015-May-22 00:25N 47°16' W 122°24'0 0.5
2015-May-21 23:33N 47°16' W 122°25'0 0.4
2015-May-21 22:33N 47°16' W 122°25'0 0.3
2015-May-21 21:33N 47°16' W 122°25'2 1.8
2015-May-21 20:33N 47°18' W 122°26'0 0.0
2015-May-21 19:33N 47°18' W 122°26'0 0.0
2015-May-21 18:30N 47°18' W 122°26'2 1.6
2015-May-21 17:33N 47°16' W 122°25'0 0.3
2015-May-21 16:33N 47°16' W 122°25'0 0.0
2015-May-21 15:33N 47°16' W 122°25'0 0.0
2015-May-21 14:33N 47°16' W 122°25'1 0.8
2015-May-21 13:04N 47°17' W 122°23'1 1.0
2015-May-21 12:07N 47°17' W 122°25'1 1.7
2015-May-21 11:33N 47°18' W 122°26'0 0.0
2015-May-21 10:29N 47°18' W 122°26'0 0.0
2015-May-21 09:33N 47°18' W 122°26'0 0.0
2015-May-21 08:32N 47°18' W 122°26'0 0.0
2015-May-21 07:28N 47°18' W 122°26'0 0.0
2015-May-21 06:30N 47°18' W 122°26'0 0.0
2015-May-21 05:33N 47°18' W 122°26'0 0.0
2015-May-21 04:31N 47°18' W 122°26'0 0.0
2015-May-21 03:33N 47°18' W 122°26'2 2.4
2015-May-21 02:32N 47°16' W 122°23'1 0.7
2015-May-21 01:33N 47°15' W 122°23'3 2.9
2015-May-21 00:33N 47°17' W 122°26'2 2.0
2015-May-20 23:32N 47°15' W 122°26'0 0.0
2015-May-20 22:33N 47°15' W 122°26'0 0.0
2015-May-20 21:33N 47°15' W 122°26'0 0.0
2015-May-20 20:33N 47°15' W 122°26'0 0.0
2015-May-20 19:12N 47°15' W 122°26'0 0.0
2015-May-20 18:33N 47°15' W 122°26'0 0.0
2015-May-20 17:33N 47°15' W 122°26'0 0.0
2015-May-20 16:33N 47°15' W 122°26'0 0.0
2015-May-20 15:33N 47°15' W 122°26'0 0.0
2015-May-20 14:33N 47°15' W 122°26'2 1.5
2015-May-20 13:33N 47°17' W 122°25'0 0.2
2015-May-20 12:33N 47°17' W 122°25'0 0.1
2015-May-20 11:33N 47°17' W 122°25'2 1.6
2015-May-20 10:33N 47°15' W 122°26'0 0.0
2015-May-20 09:34N 47°15' W 122°26'0 0.0
2015-May-20 08:34N 47°15' W 122°26'0 0.0
2015-May-20 07:33N 47°15' W 122°26'0 0.0
2015-May-20 06:33N 47°15' W 122°26'0 0.0
2015-May-20 05:33N 47°15' W 122°26'0 0.0
2015-May-20 04:33N 47°15' W 122°26'0 0.0
2015-May-20 03:33N 47°15' W 122°26'2 1.6
2015-May-20 02:32N 47°17' W 122°25'1 3.0
2015-May-20 02:07N 47°16' W 122°24'0 0.7
2015-May-20 01:33N 47°16' W 122°23'3 2.6
2015-May-20 00:33N 47°18' W 122°26'0 0.0
2015-May-19 23:33N 47°18' W 122°26'0 0.0
2015-May-19 22:32N 47°18' W 122°26'1 0.6
2015-May-19 21:33N 47°17' W 122°25'0 0.3
2015-May-19 20:33N 47°17' W 122°26'1 0.9
2015-May-19 19:32N 47°18' W 122°26'0 0.0
2015-May-19 18:32N 47°18' W 122°26'0 0.0
2015-May-19 17:28N 47°18' W 122°26'0 0.0
2015-May-19 16:32N 47°18' W 122°26'0 0.0
2015-May-19 15:29N 47°18' W 122°26'0 0.0
2015-May-19 14:32N 47°18' W 122°26'3 2.6
2015-May-19 13:33N 47°16' W 122°23'2 2.3
2015-May-19 12:33N 47°17' W 122°26'2 2.0
2015-May-19 11:31N 47°15' W 122°26'0 0.0
2015-May-19 10:33N 47°15' W 122°26'0 0.0
2015-May-19 10:30N 47°15' W 122°26'0 0.0
2015-May-19 09:33N 47°15' W 122°26'0 0.0
2015-May-19 08:33N 47°15' W 122°26'0 0.0
2015-May-19 07:33N 47°15' W 122°26'0 0.0
2015-May-19 06:33N 47°15' W 122°26'0 0.0
2015-May-19 05:33N 47°15' W 122°26'0 0.0
2015-May-19 04:32N 47°15' W 122°26'0 0.0
2015-May-19 03:29N 47°15' W 122°26'1 0.2
2015-May-18 23:35N 47°16' W 122°26'0 9.0
2015-May-18 23:33N 47°16' W 122°26'1 0.7
2015-May-18 22:33N 47°17' W 122°26'1 2.4
2015-May-18 22:18N 47°17' W 122°26'1 0.9
2015-May-18 21:33N 47°18' W 122°26'0 0.0
2015-May-18 20:32N 47°18' W 122°26'0 0.0
2015-May-18 19:33N 47°18' W 122°26'0 0.0
2015-May-18 18:32N 47°18' W 122°26'0 0.0
2015-May-18 17:33N 47°18' W 122°26'0 0.0
2015-May-18 16:33N 47°18' W 122°26'0 0.0
2015-May-18 15:33N 47°18' W 122°26'0 0.0
2015-May-18 14:34N 47°18' W 122°26'0 0.0
2015-May-18 13:33N 47°18' W 122°26'0 0.0
2015-May-18 12:31N 47°18' W 122°26'3 2.9
2015-May-18 11:33N 47°16' W 122°23'  

Dump ship's entire track history